Tiempo atmosférico en la estación meteorológica de León Aeropuerto, León (916 m.)



Fecha
DESCASC
Temp. máxima en grados centígrados (hora)
DESCASC
Temp. mínima en grados centígrados (hora)
DESCASC
Temp. media en grados centígrados
DESCASC
Racha de viento máxima en m/sg (hora)
DESCASC
Velocidad máxima media en intervalos de 10 minutos(hora)
DESCASC
Precipitaciones diarias en mm
DESCASC
Precipitaciones de 00:00 a 06:00 en mm
DESCASC
Precipitaciones de 06:00 a 12:00 en mm
DESCASC
Precipitaciones de 12:00 a 18:00 en mm
DESCASC
Precipitaciones de 18:00 a 24:00 en mm
DESCASC

Gráficas

Temp. máximas Temp. mínimas Temp. medias Precipitaciones Rachas de viento máximas Velocidades máximas media en intervalos de 10 minutos

Datos horarios

Fecha y hora oficial Temperatura (ºC) Velocidad del viento (km/h) Dirección del viento Racha (km/h) Dirección de racha Precipitación (mm) Presión (hPa) Tendencia (hPa) Humedad (%)
2020-08-11 23:00:00 17.7 6 Este 13 Este 0 911.2 1.3 74
2020-08-11 22:00:00 17.6 8 Norte 13 Nordeste 0 910.3 -0.5 76
2020-08-11 21:00:00 18.2 7 Norte 17 Norte 0 910.7 -0.4 75
2020-08-11 20:00:00 18.8 12 Norte 18 Norte 0 909.9 -0.9 74
2020-08-11 19:00:00 19.5 11 Nordeste 22 Este 0 910.8 -0.8 70
2020-08-11 18:00:00 19.8 10 Este 35 Este 0 911.1 -0.1 68
2020-08-11 17:00:00 19.4 24 Este 39 Este 0 910.8 0.8 69
2020-08-11 16:00:00 20.4 24 Sudeste 54 Sudeste 0 911.6 1.5 60
2020-08-11 15:00:00 23 28 Sur 42 Sur 0 911.2 1.4 50
2020-08-11 14:00:00 25.1 26 Sudeste 39 Sudeste 0.1 910 0 42
2020-08-11 13:00:00 26.1 16 Sudeste 30 Sudeste 0 910.1 -0.4 38
2020-08-11 12:00:00 26.1 13 Sudeste 32 Sudeste 0 909.8 -0.7 39
2020-08-11 11:00:00 24.7 12 Este 21 Este 0 910 -0.3 44
2020-08-11 10:00:00 21.4 9 Nordeste 17 Este 0 910.5 0.5 61
2020-08-11 09:00:00 20.1 15 Nordeste 22 Este 1.5 910.5 0.8 62
2020-08-11 08:00:00 19.6 9 Norte 15 Nordeste 0 910.3 0.8 57
2020-08-11 07:00:00 20 6 Nordeste 15 Nordeste 0 910 0.8 55
2020-08-11 06:00:00 19.4 9 Norte 17 Nordeste 0 909.7 0.2 57
2020-08-11 05:00:00 20.8 9 Nordeste 21 Nordeste 0 909.5 -0.3 52
2020-08-11 04:00:00 20.7 11 Nordeste 17 Norte 0 909.2 -0.3 51
2020-08-11 03:00:00 20.4 12 Norte 17 Norte 0 909.5 -- 52
2020-08-11 02:00:00 19.7 13 Norte 18 Norte 0 909.8 -- 51
2020-08-11 01:00:00 19.5 12 Norte 17 Norte 0 909.5 -- 52
2020-08-11 00:00:00 20.7 8 Norte 17 Noroeste 0 909.3 -- 49
2020-08-10 23:00:00 22.7 11 Norte 21 Noroeste 0 908.9 -- 46
2020-08-10 22:00:00 24.6 12 Oeste 17 Oeste 0 908.3 -- 35
2020-08-10 21:00:00 29.2 10 Sudoeste 26 Sudoeste 0 908.1 -- 19
2020-08-10 20:00:00 30.6 20 Sudoeste 32 Sudoeste 0 907.8 -- 14
2020-08-10 19:00:00 31.2 15 Sur 33 Sur 0 907.8 -- 16
2020-08-10 18:00:00 31.6 18 Sur 32 Sur 0 907.8 -- 18
2020-08-10 17:00:00 30.9 14 Sur 35 Sur 0 908.2 -- 24
2020-08-10 16:00:00 30.3 14 Sur 33 Sur 0 908.8 -- 24
2020-08-10 15:00:00 30.2 20 Sudoeste 42 Sudoeste 0 908.9 -- 18
2020-08-10 14:00:00 29 11 Sudeste 24 Sudeste 0 909.2 -- 29
2020-08-10 13:00:00 28.1 9 Sur 18 Sudeste 0 909.6 -- 36
2020-08-10 12:00:00 26.3 8 Este 17 Este 0 909.7 -- 42
2020-08-10 11:00:00 24.8 0 Calma 13 Este 0 909.8 -- 47
2020-08-10 10:00:00 22.8 7 Nordeste 13 Nordeste -- 910 -- 51
2020-08-10 09:00:00 21.1 8 Norte 13 Norte 0 909.8 -- 53
2020-08-10 08:00:00 16.5 5 Norte 11 Noroeste 0 909.7 -- 66
2020-08-10 07:00:00 16.7 5 Norte 9 Norte 0 909.7 -- 65
2020-08-10 06:00:00 17.3 5 Norte 13 Norte 0 909.6 -- 64
2020-08-10 05:00:00 17.1 4 Norte 9 Norte 0 909.9 -- 67
2020-08-10 04:00:00 17.7 3 Norte 9 Norte 0 910.1 -- 68
2020-08-10 03:00:00 18.1 5 Noroeste 9 Noroeste 0 910.5 -- 67
2020-08-10 02:00:00 19.1 0 Calma -- -- 0 910.7 -- 63
2020-08-10 01:00:00 20.1 8 Norte 15 Norte 0 910.7 -- 60
2020-08-10 00:00:00 21.4 7 Noroeste 15 Noroeste 0 911 -- 55
2020-08-09 23:00:00 22.5 12 Noroeste 18 Noroeste 0 911.2 -- 52
2020-08-09 22:00:00 24.1 13 Noroeste 28 Noroeste 0 910.6 -- 45
2020-08-09 21:00:00 29.8 12 Sudoeste 24 Sur 0 910.3 -- 26
2020-08-09 20:00:00 31.9 14 Sur 22 Sudeste 0 910 -- 16
2020-08-09 19:00:00 30.9 12 Sudeste 28 Sur 0 910.1 -- 21
2020-08-09 18:00:00 31.6 12 Sur 30 Sur 0 910.6 -- 19
2020-08-09 17:00:00 30.9 14 Sur 32 Sur 0 911.6 -- 26
2020-08-09 16:00:00 31.4 14 Sudoeste 32 Sur 0 911.9 -- 21
2020-08-09 15:00:00 30.5 17 Sur 28 Sur 0 912.5 -- 29
2020-08-09 14:00:00 29.8 7 Sudeste 22 Sur 0 912.8 -- 31
2020-08-09 13:00:00 28.2 9 Este 24 Sudeste 0 913.3 -- 34
2020-08-09 12:00:00 26.7 9 Este 21 Este 0 913.7 -- 38
2020-08-09 11:00:00 24.9 10 Sudeste 15 Sudeste 0 913.9 -- 42
2020-08-09 10:00:00 22.1 4 Nordeste 15 Norte 0 913.9 -- 53
2020-08-09 09:00:00 18.8 10 Norte 15 Norte 0 913.9 -- 63
2020-08-09 08:00:00 16.9 12 Norte 15 Norte 0 914.1 -- 69
2020-08-09 07:00:00 17.2 10 Norte 13 Norte 0 914.2 -- 66
2020-08-09 06:00:00 17.2 9 Noroeste 13 Norte 0 914.5 -- 67
2020-08-09 05:00:00 16.7 10 Norte 13 Norte 0 914.6 -- 73
2020-08-09 04:00:00 17.5 7 Norte 11 Norte 0 915.1 -- 73
2020-08-09 03:00:00 18.7 5 Norte 9 Norte 0 915.6 -- 69
2020-08-09 02:00:00 20.4 6 Este 13 Norte 0 915.6 -- 58
2020-08-09 01:00:00 20.4 7 Norte 13 Norte 0 915.4 -- 66
2020-08-09 00:00:00 21.1 10 Norte 18 Norte 0 915.5 -- 67
2020-08-08 23:00:00 23.9 6 Este 15 Este 0.5 915.5 -- 51
2020-08-08 22:00:00 24.6 4 Este 46 Sudeste 0 914.3 -- 45
2020-08-08 21:00:00 28.9 29 Sudeste 54 Sur 0 914 -- 31
2020-08-08 20:00:00 32.8 19 Sur 32 Sudoeste 0 913.5 -- 21
2020-08-08 19:00:00 33.4 14 Sur 32 Sur 0 913.5 -- 19
2020-08-08 18:00:00 33.2 14 Sur 33 Sur 0 914.1 -- 20
2020-08-08 17:00:00 32.9 18 Sur 46 Sur 0 915.1 -- 20
2020-08-08 16:00:00 33 18 Sur 32 Sudeste 0 915.4 -- 26
2020-08-08 15:00:00 32.4 11 Sudeste 30 Sudeste 0 915.7 -- 27
2020-08-08 14:00:00 30.8 12 Sudeste 22 Sur 0 916.2 -- 30
2020-08-08 13:00:00 29.8 12 Este 32 Este 0 916.6 -- 33
2020-08-08 12:00:00 28.5 7 Este 22 Este 0 917 -- 34
2020-08-08 11:00:00 26.2 13 Este 22 Nordeste 0 917.1 -- 39
2020-08-08 10:00:00 24.9 11 Nordeste 18 Nordeste 0 917.4 -- 41
2020-08-08 09:00:00 22.7 8 Norte 15 Norte 0 917.2 -- 47
2020-08-08 08:00:00 18.6 10 Norte 22 Norte 0 917 -- 56
2020-08-08 07:00:00 17.5 14 Norte 18 Norte 0 916.7 -- 56
2020-08-08 06:00:00 18.1 5 Norte 11 Noroeste 0 916.7 -- 51
2020-08-08 05:00:00 17.8 9 Norte 15 Norte 0 916.7 -- 49
2020-08-08 04:00:00 19.7 5 Norte 9 Nordeste 0 916.8 -- 45
2020-08-08 03:00:00 19.4 0 Calma 15 Norte 0 916.8 -- 45
2020-08-08 02:00:00 19.6 10 Norte 13 Norte 0 917 -- 46
2020-08-08 01:00:00 20.7 10 Norte 13 Norte 0 917 -- 46
2020-08-08 00:00:00 21.6 9 Noroeste 17 Noroeste 0 916.6 -- 45
2020-08-07 23:00:00 24.1 13 Norte 30 Norte 0 916 -- 35
2020-08-07 22:00:00 25.3 16 Norte 26 Norte 0 915 -- 36
2020-08-07 21:00:00 28.8 15 Norte 28 Sudoeste 0 914.1 -- 31
2020-08-07 20:00:00 32.6 19 Sudoeste 33 Sudoeste 0 913.6 -- 23
2020-08-07 19:00:00 33.3 22 Sudoeste 39 Sudoeste 0 913.6 -- 23
2020-08-07 18:00:00 33.6 18 Sudoeste 35 Sur 0 913.9 -- 24
2020-08-07 17:00:00 33.5 15 Sur 39 Sudoeste 0 914 -- 25
2020-08-07 16:00:00 33.2 22 Sur 37 Sur 0 914.4 -- 25
2020-08-07 15:00:00 32.6 15 Sudoeste 30 Sudoeste 0 914.5 -- 24
2020-08-07 14:00:00 32.9 15 Sur 30 Sur 0 914.5 -- 25
2020-08-07 13:00:00 31.2 9 Sur 17 Sur 0 914.6 -- 29
2020-08-07 12:00:00 29.7 10 Este 17 Sudeste 0 914.8 -- 30
2020-08-07 11:00:00 27.3 10 Este 18 Sudeste 0 914.7 -- 36
2020-08-07 10:00:00 25.5 9 Nordeste 13 Nordeste 0 914.6 -- 42
2020-08-07 09:00:00 23.4 8 Norte 13 Norte 0 914.4 -- 48
2020-08-07 08:00:00 20 11 Norte 13 Norte 0 914 -- 55
2020-08-07 07:00:00 20 8 Norte 11 Norte 0 913.8 -- 54
2020-08-07 06:00:00 20.4 8 Norte 13 Norte 0 913.3 -- 52
2020-08-07 05:00:00 20.4 12 Norte 15 Norte 0 913.1 -- 51
2020-08-07 04:00:00 20.3 12 Norte 15 Norte 0 912.9 -- 48
2020-08-07 03:00:00 20.9 10 Norte 15 Norte 0 912.9 -- 43
2020-08-07 02:00:00 23.5 6 Norte 11 Norte 0 913 -- 36
2020-08-07 01:00:00 22.3 10 Noroeste 15 Oeste 0 912.9 -- 39
2020-08-07 00:00:00 24.9 0 Calma 9 Oeste 0 912.5 -- 33
2020-08-06 23:00:00 26.2 2 Este 8 Este 0 912.1 -- 30
2020-08-06 22:00:00 29 3 Sudeste 15 Sudeste 0 911.4 -- 26
2020-08-06 21:00:00 32.2 0 Calma 17 Sudoeste 0 911.2 -- 21
2020-08-06 20:00:00 33.2 12 Sur 28 Sur 0 911.1 -- 19
2020-08-06 19:00:00 34.1 19 Sur 37 Sur 0 911.2 -- 17
2020-08-06 18:00:00 34.1 16 Sudoeste 33 Sudoeste 0 911.5 -- 18
2020-08-06 17:00:00 33.9 19 Sur 37 Sur 0 911.8 -- 19
2020-08-06 16:00:00 33.5 8 Sudeste 32 Sur 0 912.2 -- 18
2020-08-06 15:00:00 33 14 Sudeste 28 Sur 0 912.4 -- 18
2020-08-06 14:00:00 32 9 Sudeste 21 Sudeste 0 912.5 -- 19
2020-08-06 13:00:00 30.3 9 Este 18 Este 0 912.7 -- 21
2020-08-06 12:00:00 28.5 10 Este 18 Este 0 913 -- 22
2020-08-06 11:00:00 26.8 11 Este 22 Este 0 913.3 -- 24
2020-08-06 10:00:00 26 9 Nordeste 15 Nordeste 0 913.2 -- 25
2020-08-06 09:00:00 23.5 9 Norte 15 Norte 0 912.9 -- 33
2020-08-06 08:00:00 18.4 10 Norte 17 Norte 0 912.7 -- 47
2020-08-06 07:00:00 17.5 12 Norte 18 Norte 0 912.3 -- 56
2020-08-06 06:00:00 17.8 13 Norte 17 Norte 0 912.2 -- 58
2020-08-06 05:00:00 17.9 10 Norte 13 Norte 0 912.4 -- 60
2020-08-06 04:00:00 19.1 0 Calma 15 Norte 0 912.4 -- 58
2020-08-06 03:00:00 19.3 12 Norte 17 Norte 0 912.3 -- 57
2020-08-06 02:00:00 19.8 10 Norte 15 Norte 0 912.3 -- 57
2020-08-06 01:00:00 20.2 10 Norte 15 Norte 0 912.2 -- 55
2020-08-06 00:00:00 22.3 10 Norte 17 Norte 0 912 -- 50
2020-08-05 23:00:00 23.6 13 Norte 18 Norte 0 911.6 -- 45
2020-08-05 22:00:00 28 8 Este 11 Este 0 910.9 -- 27
2020-08-05 21:00:00 30.1 9 Sudeste 17 Sudeste 0 910.5 -- 25
2020-08-05 20:00:00 31.1 12 Sudeste 24 Sudeste 0 910.2 -- 23
2020-08-05 19:00:00 31.6 17 Sudeste 26 Sudeste 0 910.2 -- 23
2020-08-05 18:00:00 32 13 Sur 24 Sur 0 910.4 -- 23
2020-08-05 17:00:00 31.1 11 Sur 28 Sudoeste 0 910.6 -- 25
2020-08-05 16:00:00 30.2 10 Sur 22 Sudeste 0 911.1 -- 26
2020-08-05 15:00:00 29.1 10 Sudoeste 22 Sudoeste 0 911.3 -- 28
2020-08-05 14:00:00 27.8 13 Sur 22 Sudoeste 0 911.7 -- 30
2020-08-05 13:00:00 25.6 13 Sur 22 Sur 0 912.1 -- 35
2020-08-05 12:00:00 24.1 13 Sudoeste 21 Sudoeste 0 912.5 -- 39
2020-08-05 11:00:00 21.7 9 Sur 17 Sudoeste 0 912.7 -- 48
2020-08-05 10:00:00 19.6 4 Sudeste 9 Sudeste 0 912.7 -- 57
2020-08-05 09:00:00 17.5 5 Nordeste 9 Nordeste 0 912.6 -- 61
2020-08-05 08:00:00 13.6 0 Calma 11 Noroeste 0 912.3 -- 72
2020-08-05 07:00:00 13.4 4 Noroeste 11 Noroeste 0 912.2 -- 72
2020-08-05 06:00:00 13.6 5 Norte 13 Oeste 0 912.2 -- 71
2020-08-05 05:00:00 14.1 12 Noroeste 15 Noroeste 0 912.6 -- 71
2020-08-05 04:00:00 14.7 5 Noroeste 11 Noroeste 0 912.8 -- 69
2020-08-05 03:00:00 16.1 6 Norte 9 Norte 0 913.1 -- 61
2020-08-05 02:00:00 17 4 Norte 8 Norte 0 913.4 -- 59
2020-08-05 01:00:00 17.4 0 Calma 13 Norte 0 913.3 -- 54
2020-08-05 00:00:00 19.2 10 Nordeste 15 Nordeste 0 913.2 -- 46
2020-08-04 23:00:00 21 3 Noroeste -- -- 0 912.9 -- 38
2020-08-04 22:00:00 24.2 5 Sudeste 11 Sudeste 0 912.4 -- 31
2020-08-04 21:00:00 26 10 Sudeste 18 Sudeste 0 912.5 -- 29
2020-08-04 20:00:00 26.6 13 Sudeste 22 Sudeste 0 912.1 -- 28
2020-08-04 19:00:00 27 13 Sur 24 Sudoeste 0 912.2 -- 27
2020-08-04 18:00:00 26.6 13 Sur 30 Sur 0 912.5 -- 30
2020-08-04 17:00:00 26.4 12 Sur 26 Sur 0 913.1 -- 30
2020-08-04 16:00:00 25.1 10 Sur 24 Este 0 913.5 -- 34
2020-08-04 15:00:00 24.4 7 Sur 22 Sur 0 914 -- 39
2020-08-04 14:00:00 22.5 8 Sur 18 Sudeste 0 914.6 -- 43
2020-08-04 13:00:00 20.7 9 Sudoeste 18 Oeste 0 914.9 -- 55
2020-08-04 12:00:00 18 6 Sur 18 Oeste 0 915.2 -- 64
2020-08-04 11:00:00 16 4 Sudoeste 13 Noroeste 0 915.3 -- 72
2020-08-04 10:00:00 15 0 Calma 9 Noroeste 0 915.4 -- 78
2020-08-04 09:00:00 14.4 4 Oeste 8 Noroeste 0 915.2 -- 79
2020-08-04 08:00:00 13.3 5 Oeste 8 Oeste 0 915.2 -- 81
2020-08-04 07:00:00 12.1 5 Oeste 8 Noroeste 0 915 -- 82
2020-08-04 06:00:00 13 4 Sudoeste -- -- 0 914.9 -- 80
2020-08-04 05:00:00 13.1 3 Sudoeste 8 Sudoeste 0 914.9 -- 78
2020-08-04 04:00:00 14.5 0 Calma 11 Norte 0 914.9 -- 76
2020-08-04 03:00:00 14.1 6 Norte 11 Norte 0 915.1 -- 76
2020-08-04 02:00:00 15.2 6 Norte 18 Norte 0 915.1 -- 73
2020-08-04 01:00:00 15.8 10 Norte 18 Norte 0 915 -- 72
2020-08-04 00:00:00 17.6 12 Nordeste 17 Nordeste 0 914.9 -- 66
2020-08-03 23:00:00 18.4 12 Norte 26 Norte 0 914.3 -- 62
2020-08-03 22:00:00 19.8 15 Norte 32 Norte 0 913.5 -- 57
2020-08-03 21:00:00 22.2 16 Norte 32 Norte 0 913.1 -- 48
2020-08-03 20:00:00 25.8 17 Nordeste 32 Nordeste 0 912.6 -- 33
2020-08-03 19:00:00 27 10 Nordeste 18 Nordeste 0 912.6 -- 30
2020-08-03 18:00:00 26.3 14 Nordeste 22 Nordeste 0 912.6 -- 31
2020-08-03 17:00:00 26.3 9 Nordeste 35 Sudeste 0 912.8 -- 32
2020-08-03 16:00:00 25.9 13 Sur 28 Sur 0 913.5 -- 32
2020-08-03 15:00:00 24.9 12 Sur 24 Sudoeste 0 913.8 -- 33
2020-08-03 14:00:00 23.1 9 Noroeste 22 Sudoeste 0 914.4 -- 36
2020-08-03 13:00:00 22 12 Sur 21 Sudoeste 0 914.8 -- 40
2020-08-03 12:00:00 20.1 9 Sudoeste 21 Sur 0 915.2 -- 44
2020-08-03 11:00:00 17.8 9 Sudoeste 18 Sudoeste 0 915.5 -- 57
2020-08-03 10:00:00 15.6 9 Sudoeste 17 Oeste 0 915.9 -- 68
2020-08-03 09:00:00 14.4 9 Sudoeste 15 Sudoeste 0 916 -- 72
2020-08-03 08:00:00 11.8 6 Oeste 9 Oeste 0 915.4 -- 84
2020-08-03 07:00:00 11.5 6 Oeste 11 Oeste 0 915.3 -- 82
2020-08-03 06:00:00 11.8 8 Oeste 11 Oeste 0 915 -- 81
2020-08-03 05:00:00 12.8 8 Oeste -- -- 0 915.3 -- 77
2020-08-03 04:00:00 14.1 6 Oeste 8 Oeste 0 915.4 -- 74
2020-08-03 03:00:00 15.4 5 Sudoeste 9 Sudoeste 0 915.5 -- 71
2020-08-03 02:00:00 16 2 Noroeste 9 Norte 0 915.8 -- 60
2020-08-03 01:00:00 16.3 7 Norte 13 Norte 0 915.7 -- 60
2020-08-03 00:00:00 17.2 8 Norte 13 Norte 0 915.6 -- 59
2020-08-02 23:00:00 18.6 9 Norte 21 Este 0 915.7 -- 56
2020-08-02 22:00:00 19.2 18 Norte 28 Norte 0 915 -- 56
2020-08-02 21:00:00 21.5 13 Norte 24 Norte 0 914.7 -- 45
2020-08-02 20:00:00 25.6 10 Sudeste 21 Sudeste 0 914 -- 29
2020-08-02 19:00:00 26.2 9 Sudeste 21 Sudeste 0 913.9 -- 26
2020-08-02 18:00:00 25.8 10 Nordeste 24 Norte 0 914.4 -- 26
2020-08-02 17:00:00 25.9 10 Nordeste 26 Nordeste 0 914.8 -- 24
2020-08-02 16:00:00 25.3 12 Nordeste 24 Nordeste 0 915.3 -- 27
2020-08-02 15:00:00 24.8 7 Nordeste 21 Noroeste 0 915.9 -- 29
2020-08-02 14:00:00 23.9 12 Nordeste 30 Nordeste 0 916.2 -- 32
2020-08-02 13:00:00 23.2 7 Sudeste 17 Sur 0 916.4 -- 38
2020-08-02 12:00:00 21.6 10 Norte 18 Nordeste 0 916.5 -- 46
2020-08-02 11:00:00 19.9 7 Nordeste 18 Nordeste 0 916.9 -- 51
2020-08-02 10:00:00 17.3 13 Norte 22 Norte 0 916.6 -- 61
2020-08-02 09:00:00 13.5 2 Norte 5 Norte 0 916.6 -- 76
2020-08-02 08:00:00 11.7 0 Calma 9 Noroeste 0 916.5 -- 82
2020-08-02 07:00:00 11.5 8 Norte 11 Noroeste 0 916.5 -- 81
2020-08-02 06:00:00 12 9 Noroeste 11 Noroeste 0 916.5 -- 80
2020-08-02 05:00:00 12.9 5 Noroeste 8 Noroeste 0 916.4 -- 76
2020-08-02 04:00:00 13.9 4 Nordeste 8 Norte 0 916.2 -- 73
2020-08-02 03:00:00 14.7 4 Norte 9 Nordeste 0 916.5 -- 71
2020-08-02 02:00:00 15.3 4 Norte 15 Norte 0 916.6 -- 71
2020-08-02 01:00:00 15.7 8 Norte 18 Nordeste 0 916.7 -- 70
2020-08-02 00:00:00 16.6 11 Norte 24 Nordeste 0 916.8 -- 67
2020-08-01 23:00:00 17.7 16 Norte 26 Norte 0 916.7 -- 64
2020-08-01 22:00:00 19.9 14 Norte 30 Nordeste 0 916.2 -- 57
2020-08-01 21:00:00 24.2 14 Norte 26 Nordeste 0 915.1 -- 45
2020-08-01 20:00:00 27.9 19 Norte 28 Oeste 0 914.7 -- 33
2020-08-01 19:00:00 30 14 Oeste 28 Oeste 0 914.5 -- 27
2020-08-01 18:00:00 29.9 17 Sudoeste 32 Sudoeste 0 914.7 -- 28
2020-08-01 17:00:00 29.3 14 Sudoeste 26 Sudoeste 0 914.9 -- 28
2020-08-01 16:00:00 29.2 12 Oeste 35 Sudoeste 0 915.3 -- 29
2020-08-01 15:00:00 28.7 14 Sudoeste 30 Noroeste 0 915.5 -- 28
2020-08-01 14:00:00 28.1 12 Oeste 26 Oeste 0 915.9 -- 31
2020-08-01 13:00:00 26.4 11 Sudeste 22 Sur 0 916.1 -- 40
2020-08-01 12:00:00 24.3 9 Este 17 Este 0 916.3 -- 49
2020-08-01 11:00:00 22.3 5 Sudeste 11 Este 0 916.3 -- 56
2020-08-01 10:00:00 20.3 8 Este 11 Este 0 916.1 -- 63
2020-08-01 09:00:00 18.5 0 Calma -- -- 0 915.8 -- 72
2020-08-01 08:00:00 15.2 2 Oeste 11 Oeste 0 915.8 -- 83
2020-08-01 07:00:00 15.1 6 Oeste 8 Oeste 0 915.4 -- 82
2020-08-01 06:00:00 15.7 3 Noroeste 13 Noroeste 0 915.2 -- 80
2020-08-01 05:00:00 16.5 10 Noroeste 15 Noroeste 0 914.9 -- 75
2020-08-01 04:00:00 17.5 10 Noroeste 15 Noroeste 0 915 -- 70
2020-08-01 03:00:00 18.4 9 Noroeste 15 Noroeste 0 914.9 -- 68
2020-08-01 02:00:00 19.9 5 Oeste 15 Norte 0 914.9 -- 69
2020-08-01 01:00:00 19.5 7 Norte 17 Norte 0 914.8 -- 70
2020-08-01 00:00:00 21.1 9 Norte 13 Norte 0 914.8 -- 61
2020-07-31 23:00:00 23.3 9 Norte 18 Oeste 0 914.4 -- 52
2020-07-31 22:00:00 26.1 14 Oeste 26 Oeste 0 913.4 -- 30
2020-07-31 21:00:00 29.3 18 Oeste 32 Oeste 0 912.9 -- 26
2020-07-31 20:00:00 32.2 22 Sudoeste 35 Sudoeste 0 912.5 -- 15
2020-07-31 19:00:00 32.8 15 Sur 39 Sudoeste 0 912.5 -- 15
2020-07-31 18:00:00 32.8 13 Sur 35 Sur 0 912.9 -- 19
2020-07-31 17:00:00 32.3 18 Sur 33 Sur 0 913.1 -- 22
2020-07-31 16:00:00 31.7 15 Sudoeste 33 Sudoeste 0 913.4 -- 21
2020-07-31 15:00:00 30.8 18 Sur 39 Sudoeste 0 913.6 -- 26
2020-07-31 14:00:00 30.3 20 Sudoeste 35 Sudoeste 0 913.8 -- 28
2020-07-31 13:00:00 29.4 18 Sur 30 Sur 0 913.9 -- 30
2020-07-31 12:00:00 27.1 6 Sur 15 Sur 0 914 -- 38
2020-07-31 11:00:00 24.9 3 Este 15 Este 0 914.1 -- 45
2020-07-31 10:00:00 22.9 3 Nordeste 8 Nordeste 0 913.7 -- 52
2020-07-31 09:00:00 20.7 5 Nordeste 13 Norte 0 913.4 -- 61
2020-07-31 08:00:00 16.7 6 Noroeste 11 Norte 0 913.1 -- 75
2020-07-31 07:00:00 15.8 8 Norte 13 Norte 0 912.8 -- 75
2020-07-31 06:00:00 17.4 2 Nordeste 9 Norte 0 912.5 -- 69
2020-07-31 05:00:00 17.2 8 Noroeste 15 Norte 0 912.4 -- 73
2020-07-31 04:00:00 17.7 10 Norte 17 Norte 0 912.4 -- 73
2020-07-31 03:00:00 18.1 10 Noroeste 15 Norte 0 912.9 -- 72
2020-07-31 02:00:00 18.8 10 Norte 15 Norte 0 913.1 -- 74
2020-07-31 01:00:00 20.3 12 Nordeste 21 Norte 0 913.2 -- 69
2020-07-31 00:00:00 19.9 11 Norte 18 Este 0 912.7 -- 73
2020-07-30 23:00:00 20.7 9 Norte 26 Norte 0 912.6 -- 70
2020-07-30 22:00:00 20.6 14 Noroeste 30 Noroeste 0 912.2 -- 73
2020-07-30 21:00:00 23.9 20 Noroeste 41 Oeste 0.8 912.4 -- 59
2020-07-30 20:00:00 27 14 Oeste 30 Oeste 0 910.7 -- 37
2020-07-30 19:00:00 29.1 16 Sudoeste 42 Sudoeste 0 909.6 -- 26
2020-07-30 18:00:00 33.6 28 Sur 45 Sur 0 909.7 -- 23
2020-07-30 17:00:00 34.3 15 Sudoeste 32 Sudoeste 0 909.5 -- 23
2020-07-30 16:00:00 34.1 16 Sur 30 Sur 0 909.9 -- 23
2020-07-30 15:00:00 33.5 12 Sudeste 28 Sudeste 0 910.8 -- 27
2020-07-30 14:00:00 31.7 11 Este 28 Este 0 911.3 -- 31
2020-07-30 13:00:00 30.4 13 Sudeste 28 Este 0 911.7 -- 33
2020-07-30 12:00:00 29 17 Este 24 Este 0 912.1 -- 35
2020-07-30 11:00:00 27.6 12 Este 28 Este 0 912.2 -- 37
2020-07-30 10:00:00 25.6 13 Este 21 Nordeste 0 912.3 -- 41
2020-07-30 09:00:00 23.8 9 Norte 15 Norte 0 912.1 -- 46
2020-07-30 08:00:00 20.3 10 Norte 17 Norte 0 911.8 -- 56
2020-07-30 07:00:00 19.9 12 Norte 17 Norte 0 911.6 -- 57
2020-07-30 06:00:00 20.2 12 Norte 17 Norte 0 911.4 -- 57
2020-07-30 05:00:00 20.6 12 Norte 17 Norte 0 911.4 -- 57
2020-07-30 04:00:00 21 10 Norte 17 Norte 0 911.5 -- 58
2020-07-30 03:00:00 21.7 13 Norte 17 Norte 0 911.8 -- 58
2020-07-30 02:00:00 22.5 11 Norte 21 Nordeste 0 912.2 -- 55
2020-07-30 01:00:00 23.1 13 Nordeste 18 Nordeste 0 912.5 -- 50
2020-07-30 00:00:00 23.8 11 Norte 17 Norte 0 912 -- 34
2020-07-29 23:00:00 24.6 6 Norte 11 Nordeste 0 911.8 -- 30
2020-07-29 22:00:00 29.3 0 Calma 11 Sur 0 911.3 -- 22
2020-07-29 21:00:00 32.2 10 Sur 18 Sur 0 911.2 -- 19
2020-07-29 20:00:00 32.6 11 Sur 22 Sur 0 911.2 -- 18
2020-07-29 19:00:00 32.5 15 Sur 26 Sur 0 911.6 -- 19
2020-07-29 18:00:00 32.3 18 Sur 33 Sudoeste 0 912.1 -- 24
2020-07-29 17:00:00 31.9 19 Sur 35 Sur 0 912.3 -- 25
2020-07-29 16:00:00 31.2 12 Sur 26 Sudeste 0 912.7 -- 29
2020-07-29 15:00:00 30.2 12 Sudeste 22 Este 0 913.2 -- 33
2020-07-29 14:00:00 28.3 6 Sudeste 18 Sudeste 0 913.7 -- 38
2020-07-29 13:00:00 26.3 9 Este 18 Este 0 914.1 -- 44
2020-07-29 12:00:00 24.3 6 Sur -- -- -- 914.4 -- 53
2020-07-29 11:00:00 22 0 Calma 11 Sur 0 914.6 -- 61
2020-07-29 10:00:00 19.8 3 Oeste 9 Noroeste 0 914.7 -- 69
2020-07-29 09:00:00 17.5 0 Calma 8 Norte 0 914.7 -- 78
2020-07-29 08:00:00 14.9 6 Norte 9 Norte 0 914.6 -- 86
2020-07-29 07:00:00 14.7 7 Noroeste 9 Noroeste 0 914.6 -- 85
2020-07-29 06:00:00 15 5 Sudoeste 11 Noroeste 0 914.6 -- 84
2020-07-29 05:00:00 15.8 8 Oeste 11 Noroeste 0 914.6 -- 83
2020-07-29 04:00:00 15.7 8 Oeste 11 Noroeste 0 914.6 -- 82
2020-07-29 03:00:00 17.6 0 Calma 9 Sudeste 0 914.8 -- 76
2020-07-29 02:00:00 18.3 6 Sur 13 Sudeste 0 914.9 -- 73
2020-07-29 01:00:00 19.4 8 Sudeste 15 Este 0 914.8 -- 70
2020-07-29 00:00:00 21.2 0 Calma 15 Este 0 914.8 -- 65
2020-07-28 23:00:00 22.5 12 Este 24 Este 0 914.5 -- 61
2020-07-28 22:00:00 24.7 19 Este 32 Sudeste 0 913.6 -- 54
2020-07-28 21:00:00 28.1 20 Este 33 Sudeste 0 913.1 -- 43
2020-07-28 20:00:00 31.3 6 Sur 18 Sudoeste 0 912.7 -- 27
2020-07-28 19:00:00 31.3 9 Sudoeste 26 Sur 0 912.8 -- 26
2020-07-28 18:00:00 30.9 15 Sudoeste 30 Sudoeste 0 913 -- 30
2020-07-28 17:00:00 30.7 12 Sur 26 Sur 0 913 -- 30
2020-07-28 16:00:00 29.5 10 Sur 26 Sudoeste 0 913.2 -- 33
2020-07-28 15:00:00 29.1 12 Sur 24 Sur 0 913.4 -- 34
2020-07-28 14:00:00 28.4 7 Sudeste 15 Sur 0 913.7 -- 36
2020-07-28 13:00:00 26.9 6 Este 18 Sur 0 914 -- 40
2020-07-28 12:00:00 25.1 10 Sudoeste 18 Sudoeste 0 914.2 -- 44
2020-07-28 11:00:00 23.3 6 Sudoeste 15 Sur 0 914.3 -- 48
2020-07-28 10:00:00 21.2 5 Sudoeste 11 Sur 0 914.3 -- 60
2020-07-28 09:00:00 20.6 0 Calma 9 Noroeste 0 914 -- 61
2020-07-28 08:00:00 16.6 7 Noroeste 11 Noroeste 0 913.8 -- 76
2020-07-28 07:00:00 15.6 4 Noroeste 13 Norte 0 913.4 -- 78
2020-07-28 06:00:00 16.1 6 Norte 11 Norte 0 913.1 -- 77
2020-07-28 05:00:00 17.7 0 Calma 11 Oeste 0 913.3 -- 71
2020-07-28 04:00:00 17.7 8 Sudoeste 13 Norte 0 913.3 -- 72
2020-07-28 03:00:00 18.8 10 Norte 17 Norte 0 913.3 -- 67
2020-07-28 02:00:00 19.7 12 Norte 17 Norte 0 913.8 -- 68
2020-07-28 01:00:00 21.7 6 Noroeste 21 Este 0 913.7 -- 59
2020-07-28 00:00:00 22.6 10 Norte 22 Noroeste 0 913.2 -- 58
2020-07-27 23:00:00 24.9 9 Noroeste 22 Oeste 0 912.7 -- 49
2020-07-27 22:00:00 27.7 17 Oeste 32 Oeste 0 911.9 -- 28
2020-07-27 21:00:00 30.6 17 Oeste 30 Oeste 0 911.7 -- 26
2020-07-27 20:00:00 33.1 18 Oeste 32 Oeste 0 911.3 -- 23
2020-07-27 19:00:00 34.5 20 Oeste 35 Sudoeste 0 911.2 -- 20
2020-07-27 18:00:00 34.3 16 Sudoeste 35 Sudoeste 0 911.4 -- 21
2020-07-27 17:00:00 34.3 10 Sur 26 Oeste 0 911.7 -- 24
2020-07-27 16:00:00 33 9 Sudoeste 32 Sudoeste 0 912.4 -- 24
2020-07-27 15:00:00 32 16 Sudoeste 32 Sur 0 912.8 -- 25
2020-07-27 14:00:00 31.4 18 Sudoeste 33 Sudoeste 0 913.2 -- 23
2020-07-27 13:00:00 30.1 11 Sur 22 Sudoeste 0 913.4 -- 29
2020-07-27 12:00:00 28.2 4 Nordeste 11 Nordeste 0 913.6 -- 33
2020-07-27 09:00:00 20.5 7 Nordeste 15 Norte 0 913.5 0.5 55
2020-07-27 08:00:00 16.7 10 Norte 15 Norte 0 913.2 0.1 66
2020-07-27 07:00:00 16.5 6 Norte 11 Norte 0 913 0.1 66
2020-07-27 06:00:00 16.7 9 Norte 11 Norte 0 913 0.1 65
2020-07-27 05:00:00 16.9 6 Norte 9 Norte 0 913.1 0 64
2020-07-27 04:00:00 18.4 5 Nordeste 8 Nordeste 0 912.9 -0.3 56
2020-07-27 03:00:00 18.9 5 Noroeste 9 Norte 0 912.9 0 53
2020-07-27 02:00:00 20.6 7 Norte 11 Noroeste 0 913.1 0.3 51
2020-07-27 01:00:00 21.2 6 Noroeste 11 Norte 0 913.2 0.9 46
2020-07-27 00:00:00 23 5 Noroeste 15 Noroeste 0 912.9 0.8 41
2020-07-26 23:00:00 24.1 12 Noroeste 17 Noroeste 0 912.8 0.8 40
2020-07-26 22:00:00 28.8 3 Oeste 15 Sur 0 912.3 0.2 28
2020-07-26 21:00:00 30.2 12 Sur 21 Sudeste 0 912.1 -0.5 25
2020-07-26 20:00:00 31.1 13 Sudoeste 22 Sudoeste 0 912 -1 25
2020-07-26 19:00:00 31.2 10 Sudoeste 26 Sudoeste 0 912.1 -1.6 25
2020-07-26 18:00:00 30.4 15 Sudoeste 32 Sur 0 912.6 -1.4 27
2020-07-26 17:00:00 30.1 10 Sudoeste 22 Sudoeste 0 913 -1.3 26
2020-07-26 16:00:00 29 12 Sur 24 Sur 0 913.7 -1.1 24
2020-07-26 15:00:00 27.5 14 Sudoeste 30 Sur 0 914 -0.9 28
2020-07-26 14:00:00 26.5 12 Sudoeste 24 Sur 0 914.3 -0.6 38
2020-07-26 13:00:00 24.7 8 Sur 21 Sur 0 914.8 -0.1 43
2020-07-26 12:00:00 23.1 9 Sur 21 Sur 0 914.9 0.3 48
2020-07-26 11:00:00 21.6 10 Sur 18 Sur 0 914.9 0.6 53
2020-07-26 10:00:00 20.4 4 Sudeste 9 Sur 0 914.9 -- 58
2020-07-26 09:00:00 17.9 5 Nordeste 9 Norte 0 914.6 -- 66
2020-07-26 08:00:00 14.1 3 Noroeste 9 Norte 0 914.3 -- 77
2020-07-26 07:00:00 13.7 0 Calma 8 Nordeste 0 914.1 -- 75
2020-07-26 06:00:00 14.9 0 Calma 5 Noroeste 0 913.8 -- 70
2020-07-26 05:00:00 16 0 Calma 8 Noroeste 0 913.4 -- 69
2020-07-26 04:00:00 16.1 3 Sudeste 9 Noroeste 0 913.6 -- 67
2020-07-26 03:00:00 17.3 2 Norte 13 Este 0 913.6 -- 64
2020-07-26 02:00:00 18.3 6 Norte 21 Noroeste 0 913.6 -- 59
2020-07-26 01:00:00 18.4 4 Norte 15 Noroeste 0 913.3 -- 58
2020-07-26 00:00:00 19.5 8 Noroeste 13 Noroeste 0 913.3 -- 51
2020-07-25 23:00:00 21 8 Norte 21 Oeste 0 913 -- 35
2020-07-25 22:00:00 24 15 Oeste 37 Oeste 0 911.9 -- 26
2020-07-25 21:00:00 27.5 22 Oeste 37 Oeste 0 911.4 -- 17
2020-07-25 20:00:00 29.4 23 Oeste 39 Oeste 0 910.9 -- 18
2020-07-25 19:00:00 30.7 23 Oeste 35 Oeste 0 910.9 -- 17
2020-07-25 18:00:00 31.1 18 Oeste 33 Oeste 0 911.1 -- 19
2020-07-25 17:00:00 30.2 9 Sur 33 Sudoeste 0 911.4 -- 28
2020-07-25 16:00:00 29.4 12 Oeste 33 Sudoeste 0 911.8 -- 30
2020-07-25 15:00:00 28.2 13 Sudoeste 35 Oeste 0 912.5 -- 30
2020-07-25 14:00:00 26.9 13 Oeste 24 Oeste 0 913.2 -- 32
2020-07-25 13:00:00 25.6 9 Sudoeste 24 Sudoeste 0 913.4 -- 34
2020-07-25 12:00:00 23.9 11 Sur 21 Sudoeste 0 913.7 -- 38
2020-07-25 11:00:00 21.7 6 Sur 13 Sur 0 913.9 -- 46
2020-07-25 10:00:00 19.7 4 Sur 13 Noroeste 0 914.1 -- 54
2020-07-25 09:00:00 17.1 4 Norte 9 Noroeste 0 914.2 -- 63
2020-07-25 08:00:00 14.1 3 Norte 13 Noroeste 0 914.1 -- 76
2020-07-25 07:00:00 13.4 8 Oeste 11 Oeste 0 914.2 -- 77
2020-07-25 06:00:00 13.6 4 Oeste 8 Sudoeste 0 914.1 -- 68
2020-07-25 05:00:00 14.4 4 Norte 9 Norte 0 914.3 -- 65
2020-07-25 04:00:00 15.3 2 Noroeste 8 Este 0 914.3 -- 64
2020-07-25 03:00:00 16.8 0 Calma 9 Norte 0 914.5 -- 57
2020-07-25 02:00:00 16.9 8 Noroeste 11 Noroeste 0 914.6 -- 58
2020-07-25 01:00:00 18.1 5 Norte 15 Norte 0 914.7 -- 51
2020-07-25 00:00:00 19.4 8 Norte 13 Norte 0 914.7 -- 48
2020-07-24 23:00:00 21.6 9 Nordeste 21 Norte 0 914.4 -- 45
2020-07-24 22:00:00 22.9 14 Norte 26 Norte 0 913.6 -- 43
2020-07-24 21:00:00 26.4 11 Norte 18 Norte 0 913 -- 33
2020-07-24 20:00:00 27.6 8 Norte 15 Norte 0 912.8 -- 28
2020-07-24 19:00:00 28.7 10 Sudeste 28 Sudeste 0 912.7 -- 24
2020-07-24 18:00:00 29 13 Sudeste 28 Sudeste 0 912.9 -- 24
2020-07-24 17:00:00 28.8 11 Sur 28 Sur 0 913.1 -- 25
2020-07-24 16:00:00 28.1 12 Sur 26 Sur 0 913.4 -- 26
2020-07-24 15:00:00 26.9 14 Sur 32 Sudeste 0 913.8 -- 28
2020-07-24 14:00:00 26.2 9 Este 22 Sudeste 0 914.3 -- 30
2020-07-24 13:00:00 25 5 Este 18 Sudeste 0 914.7 -- 32
2020-07-24 12:00:00 23.1 8 Sur 21 Sudoeste 0 914.6 -- 41
2020-07-24 11:00:00 20.5 8 Sur 15 Sur 0 914.8 -- 51
2020-07-24 10:00:00 18.7 5 Sudeste 11 Sudeste 0 914.9 -- 60
2020-07-24 09:00:00 16.7 4 Este 8 Este 0 914.6 -- 72
2020-07-24 08:00:00 13.5 4 Noroeste 11 Noroeste 0 914.5 -- 78
2020-07-24 07:00:00 12.4 9 Oeste 11 Noroeste 0 914.3 -- 82
2020-07-24 06:00:00 12.7 7 Oeste 9 Oeste 0 914.3 -- 72
2020-07-24 05:00:00 13.5 4 Noroeste 9 Norte 0 914.5 -- 68
2020-07-24 04:00:00 14.9 0 Calma 15 Norte 0 914.6 -- 65
2020-07-24 03:00:00 16 7 Noroeste -- -- 0 914.6 -- 63
2020-07-24 02:00:00 16.7 4 Norte 8 Este 0 914.7 -- 62
2020-07-24 01:00:00 18.7 3 Sur 15 Norte 0 914.6 -- 58
2020-07-24 00:00:00 20.3 10 Nordeste 15 Nordeste 0 914.5 -- 53
2020-07-23 23:00:00 21.5 7 Nordeste 18 Nordeste 0 914.2 -- 50
2020-07-23 22:00:00 22.6 9 Nordeste 18 Nordeste 0 913.6 -- 49
2020-07-23 21:00:00 26.1 11 Norte 32 Oeste 0 913.3 -- 39
2020-07-23 20:00:00 30 20 Oeste 32 Oeste 0 912.7 -- 17
2020-07-23 19:00:00 30.9 24 Oeste 45 Oeste 0 912.6 -- 19
2020-07-23 18:00:00 31.4 23 Oeste 42 Oeste 0 912.9 -- 21
2020-07-23 17:00:00 31.3 23 Oeste 39 Sudoeste 0 913.1 -- 21
2020-07-23 16:00:00 31.2 23 Oeste 48 Sudoeste 0 913.6 -- 16
2020-07-23 15:00:00 30.7 31 Oeste 42 Oeste 0 913.9 -- 20
2020-07-23 14:00:00 29.9 24 Oeste 48 Sudoeste 0 914.6 -- 22
2020-07-23 13:00:00 28.7 15 Oeste 33 Oeste 0 915 -- 30
2020-07-23 12:00:00 26.9 9 Oeste 28 Sudoeste 0 915.3 -- 36
2020-07-23 11:00:00 25.6 10 Sudoeste 24 Sudoeste 0 915.5 -- 38
2020-07-23 10:00:00 22.6 3 Sudeste 9 Este 0 915.8 -- 48
2020-07-23 09:00:00 20.9 3 Sudeste 8 Sudeste 0 915.8 -- 55
2020-07-23 08:00:00 17 0 Calma 9 Noroeste 0 915.6 -- 67
2020-07-23 07:00:00 16.3 3 Norte 8 Noroeste 0 915.4 -- 69
2020-07-23 06:00:00 16.5 5 Norte 13 Noroeste 0 915.5 -- 70
2020-07-23 05:00:00 17.8 4 Norte 11 Noroeste 0 915.7 -- 65
2020-07-23 04:00:00 17.1 6 Noroeste 8 Noroeste 0 916 -- 64
2020-07-23 03:00:00 18.3 3 Nordeste 9 Norte 0 916.1 -- 63
2020-07-23 02:00:00 18.5 6 Norte 9 Norte 0 916.3 -- 60
2020-07-23 01:00:00 19.1 0 Calma 13 Noroeste 0 916.5 -- 57
2020-07-23 00:00:00 20.2 9 Norte 15 Norte 0 916.1 -- 55
2020-07-22 23:00:00 21.4 10 Norte 17 Norte 0 916 -- 59
2020-07-22 22:00:00 24.1 10 Noroeste 13 Norte 0 915.5 -- 51
2020-07-22 21:00:00 27.2 5 Norte 15 Noroeste 0 915.3 -- 40
2020-07-22 20:00:00 27.5 10 Norte 18 Norte 0 915 -- 38
2020-07-22 19:00:00 24.2 12 Norte 26 Norte 0 915.3 -- 55
2020-07-22 18:00:00 25.2 16 Norte 28 Norte 0 915.3 -- 48
2020-07-22 17:00:00 27.2 16 Nordeste 42 Este 0 915.5 -- 31
2020-07-22 16:00:00 27.1 19 Norte 45 Nordeste 0 915.4 -- 36
2020-07-22 15:00:00 29.6 8 Este 30 Este 0 915.2 -- 30
2020-07-22 14:00:00 28.5 11 Este 26 Este 0 915.6 -- 32
2020-07-22 13:00:00 27.8 11 Este 22 Sudeste 0 915.9 -- 35
2020-07-22 12:00:00 25.8 13 Sudeste 26 Sudeste 0 916.1 -- 42
2020-07-22 11:00:00 25.2 10 Este 21 Norte 0 915.9 -- 40
2020-07-22 10:00:00 23.6 12 Norte 18 Nordeste 0 915.8 -- 44
2020-07-22 09:00:00 21.7 11 Norte 15 Norte 0 915.9 -- 50
2020-07-22 08:00:00 18.1 8 Norte 11 Norte 0 915.7 -- 63
2020-07-22 07:00:00 18.3 5 Este 13 Norte 0 915.9 -- 61
2020-07-22 06:00:00 17.5 10 Norte 15 Norte 0 915.5 -- 63
2020-07-22 05:00:00 16.9 12 Norte 18 Norte 0 915.7 -- 67
2020-07-22 04:00:00 17.6 4 Noroeste 13 Noroeste 0 916.5 -- 67
2020-07-22 03:00:00 17.9 10 Noroeste 13 Noroeste 0 916.9 -- 67
2020-07-22 02:00:00 18.9 7 Sudoeste 15 Oeste 0 917.3 -- 65
2020-07-22 01:00:00 18.4 6 Noroeste 15 Norte 0 917 -- 67
2020-07-22 00:00:00 19.2 4 Este 9 Nordeste 0 916.8 -- 65
2020-07-21 23:00:00 19.7 4 Norte 28 Nordeste 0 916.9 -- 63
2020-07-21 22:00:00 19.4 24 Nordeste 41 Nordeste 0 916.3 -- 67
2020-07-21 21:00:00 19.3 35 Nordeste 61 Nordeste 0.2 916.4 -- 71
2020-07-21 20:00:00 27.1 16 Nordeste 30 Nordeste 0 914.7 -- 31
2020-07-21 19:00:00 27.1 16 Oeste 48 Oeste 0 913.8 -- 32
2020-07-21 18:00:00 28.7 31 Oeste 46 Oeste 0 914.1 -- 27
2020-07-21 17:00:00 31.7 16 Oeste 30 Sudoeste 0 913.3 -- 29
2020-07-21 16:00:00 31.6 8 Sudoeste 35 Sudoeste 0 913.6 -- 28
2020-07-21 15:00:00 31 15 Sudoeste 30 Sudoeste 0 914.1 -- 30
2020-07-21 14:00:00 29 8 Sudeste 22 Este 0 914.1 -- 35
2020-07-21 13:00:00 27.4 11 Nordeste 24 Nordeste 0 914.6 -- 40
2020-07-21 12:00:00 25.6 13 Nordeste 24 Nordeste 0 915.1 -- 47
2020-07-21 11:00:00 23.1 4 Sudeste 22 Sudoeste 0 915.8 -- 55
2020-07-21 10:00:00 21.6 11 Sur 22 Sur 0 915.9 -- 58
2020-07-21 09:00:00 19.5 4 Nordeste 8 Nordeste 0 914.8 -- 62
2020-07-21 08:00:00 16.1 0 Calma 9 Norte 0 914.5 -- 73
2020-07-21 07:00:00 15.4 3 Nordeste 8 Noroeste 0 914.3 -- 73
2020-07-21 06:00:00 15.3 7 Norte 11 Noroeste 0 914.2 -- 73
2020-07-21 05:00:00 16.1 5 Norte 11 Norte 0 914.2 -- 72
2020-07-21 04:00:00 16.9 0 Calma 5 Norte 0 914.3 -- 64
2020-07-21 03:00:00 16.8 3 Norte 8 Norte 0 914.5 -- 63
2020-07-21 02:00:00 20 0 Calma 8 Noroeste 0 914.7 -- 53
2020-07-21 01:00:00 20.6 7 Noroeste 11 Norte 0 914.6 -- 51
2020-07-21 00:00:00 23.2 10 Este 21 Este 0 914.3 -- 50
2020-07-20 23:00:00 23.1 12 Norte 22 Norte 0 913.5 -- 41
2020-07-20 22:00:00 28.6 4 Sudeste 13 Sudeste 0 912.6 -- 24
2020-07-20 21:00:00 30.7 11 Sudeste 17 Sudeste 0 912.3 -- 21
2020-07-20 20:00:00 31.9 7 Sudoeste 18 Sudoeste 0 912 -- 21
2020-07-20 19:00:00 31.3 10 Sur 26 Sudoeste 0 912.1 -- 23
2020-07-20 18:00:00 31.6 10 Sur 26 Sur 0 912.7 -- 17
2020-07-20 17:00:00 30.2 15 Sur 32 Sudoeste 0 912.9 -- 22
2020-07-20 16:00:00 29.9 12 Sudoeste 33 Sudoeste 0 913.1 -- 27
2020-07-20 15:00:00 29.1 12 Sur 26 Sur 0 913.2 -- 32
2020-07-20 14:00:00 27.8 9 Este 26 Sur 0 913.5 -- 35
2020-07-20 13:00:00 26.1 9 Este 18 Este 0 913.9 -- 39
2020-07-20 12:00:00 25.2 7 Sur 17 Este 0 913.9 -- 41
2020-07-20 11:00:00 23.3 4 Nordeste 18 Este 0 913.8 -- 47
2020-07-20 10:00:00 21.3 11 Este 17 Este 0 913.4 -- 52
2020-07-20 09:00:00 19.5 5 Norte 8 Norte 0 913.3 -- 62
2020-07-20 08:00:00 16.6 4 Nordeste 5 Norte 0 913 -- 73
2020-07-20 07:00:00 15.3 3 Noroeste 5 Oeste 0 912.8 -- 75
2020-07-20 06:00:00 15.4 2 Norte 8 Norte 0 912.5 -- 74
2020-07-20 05:00:00 15.9 0 Calma 9 Noroeste 0 912.6 -- 72
2020-07-20 04:00:00 17.5 5 Oeste 11 Nordeste 0 912.8 -- 65
2020-07-20 03:00:00 18.8 3 Norte 13 Norte 0 912.8 -- 62
2020-07-20 02:00:00 19.7 10 Norte 18 Nordeste 0 912.9 -- 58
2020-07-20 01:00:00 20.4 12 Norte 21 Norte 0 912.8 -- 58
2020-07-20 00:00:00 21.2 13 Norte 22 Norte 0 912.8 -- 54
2020-07-19 23:00:00 22.9 13 Nordeste 21 Nordeste 0 912.4 -- 47
2020-07-19 22:00:00 25.5 12 Norte 22 Norte 0 911.1 -- 37
2020-07-19 21:00:00 28.7 14 Norte 26 Norte 0 910.4 -- 30
2020-07-19 20:00:00 32.6 9 Noroeste 26 Sudoeste 0 910.1 -- 23
2020-07-19 19:00:00 32.8 15 Sur 32 Sur 0 910.2 -- 21
2020-07-19 18:00:00 32.7 15 Sur 30 Sur 0 910.5 -- 22
2020-07-19 17:00:00 32.5 13 Sudoeste 32 Sudoeste 0 910.9 -- 19
2020-07-19 16:00:00 32 17 Sur 35 Sudoeste 0 911.1 -- 18
2020-07-19 15:00:00 31.8 14 Sur 32 Sur 0 911.5 -- 18
2020-07-19 14:00:00 30.5 12 Sur 26 Sur 0 912 -- 21
2020-07-19 13:00:00 29.4 10 Sur 21 Sudeste 0 912.2 -- 23
2020-07-19 12:00:00 28.1 9 Este 21 Nordeste 0 912.3 -0.1 27
2020-07-19 11:00:00 25.7 11 Nordeste 18 Nordeste 0 912.3 0.2 33
2020-07-19 10:00:00 23.8 9 Nordeste 15 Este 0 912.5 0.5 38
2020-07-19 09:00:00 22.7 9 Norte 17 Norte 0 912.4 0.4 41
2020-07-19 08:00:00 19 9 Norte 18 Norte 0 912.1 -- 50
2020-07-19 07:00:00 17.4 11 Norte 18 Nordeste 0 912 -- 52
2020-07-19 06:00:00 18.1 12 Norte 15 Norte 0 912 -- 50
2020-07-19 05:00:00 18.3 9 Norte 17 Norte 0 912.3 -- 49
2020-07-19 04:00:00 18.8 8 Norte 17 Norte 0 912.6 -- 48
2020-07-19 03:00:00 18.8 14 Norte 17 Norte 0 912.9 -- 50
2020-07-19 02:00:00 19.6 11 Norte 15 Norte 0 913.1 -- 49
2020-07-19 01:00:00 20.2 12 Norte 17 Norte 0 913.2 -- 48
2020-07-19 00:00:00 21.7 11 Norte 17 Norte 0 913 -- 45
2020-07-18 23:00:00 23.5 6 Nordeste 8 Nordeste 0 912.8 -- 34
2020-07-18 22:00:00 28.1 5 Sudeste 15 Sudeste 0 912.1 -- 26
2020-07-18 21:00:00 30 12 Sudeste 22 Sudeste 0 911.8 -- 22
2020-07-18 20:00:00 31.3 14 Sur 24 Sur 0 911.6 -- 23
2020-07-18 19:00:00 31.3 10 Sudeste 24 Sudeste 0 911.8 -- 23
2020-07-18 18:00:00 31.3 11 Sudeste 22 Sur 0 912.1 -- 22
2020-07-18 17:00:00 30.6 8 Sudoeste 24 Sudoeste 0 912.6 -- 23
2020-07-18 16:00:00 29.5 12 Sur 22 Sudeste 0 913.1 -- 27
2020-07-18 15:00:00 28.4 6 Sur 18 Sudeste 0 913.5 -- 28
2020-07-18 14:00:00 26.5 4 Este 17 Este 0 914.1 -- 30
2020-07-18 13:00:00 24.3 6 Este 17 Este 0 914.5 -- 34
2020-07-18 12:00:00 22.4 4 Norte 13 Este 0 915 -- 43
2020-07-18 11:00:00 19.7 3 Sur 11 Este 0 915.3 -- 52
2020-07-18 10:00:00 17 2 Sudeste 9 Este 0 915.6 -- 59
2020-07-18 09:00:00 14.7 5 Este 9 Este 0 915.6 -- 65
2020-07-18 08:00:00 12.8 0 Calma 9 Noroeste 0 915.4 -- 72
2020-07-18 07:00:00 11.5 6 Noroeste 9 Noroeste 0 915.2 -- 73
2020-07-18 06:00:00 12.3 5 Oeste 11 Oeste 0 915.2 -- 73
2020-07-18 05:00:00 13 6 Oeste 9 Oeste 0 915.3 -- 71
2020-07-18 04:00:00 14.4 5 Oeste 8 Oeste 0 915.6 -- 64
2020-07-18 03:00:00 15.2 6 Sur 11 Sudoeste 0 915.9 -- 62
2020-07-18 02:00:00 16.3 8 Sudoeste 11 Sudoeste 0 916.2 -- 58
2020-07-18 01:00:00 19.1 2 Sur 13 Sudeste 0 916 -- 49
2020-07-18 00:00:00 20.4 9 Sudeste 13 Sudeste 0 915.9 -- 43
2020-07-17 23:00:00 22.3 10 Sudeste 22 Sudeste 0 915.5 -- 37
2020-07-17 22:00:00 24.9 14 Sudeste 28 Sudeste 0 914.8 -- 30
2020-07-17 21:00:00 28 21 Sudeste 32 Sudeste 0 914.3 -- 24
2020-07-17 20:00:00 30.2 9 Sur 24 Sur 0 914 -- 20
2020-07-17 19:00:00 30.4 7 Sur 28 Sur 0 914.2 -- 20
2020-07-17 18:00:00 30.2 14 Sur 24 Sudoeste 0 914.6 -- 21
2020-07-17 17:00:00 29.9 12 Sur 28 Sur 0 914.7 -- 21
2020-07-17 16:00:00 28.4 17 Sur 30 Sudoeste 0 915 -- 25
2020-07-17 15:00:00 28.7 15 Sur 26 Sudoeste 0 915.2 -- 24
2020-07-17 14:00:00 27.9 9 Sudeste 22 Sudeste 0 915.5 -- 20
2020-07-17 13:00:00 26.4 9 Norte 17 Nordeste 0 915.9 -- 21
2020-07-17 12:00:00 24.8 6 Este 15 Este 0 916.3 -- 23
2020-07-17 11:00:00 22.8 5 Este 11 Este 0 916.5 -- 31
2020-07-17 10:00:00 20.9 4 Este 9 Este 0 916.9 -- 39
2020-07-17 09:00:00 17.2 6 Noroeste 11 Noroeste 0 917 -- 54
2020-07-17 08:00:00 13.3 9 Noroeste 11 Noroeste 0 917 -- 60
2020-07-17 07:00:00 10.9 5 Oeste 8 Oeste 0 916.9 -- 70
2020-07-17 06:00:00 12.4 2 Oeste -- -- 0 916.8 -- 63
2020-07-17 05:00:00 13.2 8 Oeste 11 Oeste 0 916.7 -- 59
2020-07-17 04:00:00 13.8 6 Oeste 9 Oeste 0 916.6 -- 57
2020-07-17 03:00:00 15.7 4 Nordeste 17 Norte 0 916.8 -- 50
2020-07-17 02:00:00 16.3 10 Norte 17 Norte 0 917 -- 48
2020-07-17 01:00:00 17.3 13 Norte 17 Norte 0 917.3 -- 56
2020-07-17 00:00:00 19.5 9 Norte 15 Norte 0 917.4 -- 55
2020-07-16 23:00:00 20.8 9 Norte 17 Norte 0 917.1 -- 53
2020-07-16 22:00:00 23.1 10 Norte 18 Norte 0 916.4 -- 44
2020-07-16 21:00:00 26.4 14 Norte 30 Norte 0 916 -- 30
2020-07-16 20:00:00 29.4 10 Este 22 Este 0 915.6 -- 20
2020-07-16 19:00:00 29.1 8 Este 22 Sudeste 0 915.9 -- 18
2020-07-16 18:00:00 29.5 8 Sudeste 22 Este 0 916.1 -- 18
2020-07-16 17:00:00 28.7 10 Nordeste 26 Nordeste 0 916.4 -- 18
2020-07-16 16:00:00 27.6 10 Este 22 Este 0 916.7 -- 18
2020-07-16 15:00:00 26.7 10 Sudeste 22 Sudeste 0 917.2 -- 19
2020-07-16 14:00:00 25.5 12 Sur 24 Sudoeste 0 917.5 -- 21
2020-07-16 13:00:00 24.6 10 Sur 21 Sur 0 917.7 -- 27
2020-07-16 12:00:00 23 6 Sudeste 15 Este 0 918 -- 33
2020-07-16 11:00:00 21.3 3 Norte 11 Este 0 918 -- 40
2020-07-16 10:00:00 18.5 5 Norte 9 Noroeste 0 917.9 -- 50
2020-07-16 09:00:00 15.7 3 Oeste 9 Noroeste 0 917.7 -- 63
2020-07-16 08:00:00 12.4 5 Noroeste 9 Noroeste 0 917.9 -- 75
2020-07-16 07:00:00 11.1 8 Noroeste 9 Noroeste 0 918 -- 77
2020-07-16 06:00:00 12.9 3 Sur 9 Sur 0 917.8 -- 72
2020-07-16 05:00:00 13.8 5 Sur 11 Sur 0 917.9 -- 66
2020-07-16 04:00:00 14.4 5 Sur 11 Sudoeste 0 917.7 -- 67
2020-07-16 03:00:00 15.1 5 Oeste 8 Oeste 0 917.6 -- 67
2020-07-16 02:00:00 15.8 5 Sudoeste 11 Sudeste 0 917.7 -- 63
2020-07-16 01:00:00 17.9 8 Sudeste 13 Sudeste 0 917.7 -- 61
2020-07-16 00:00:00 19.1 7 Este 18 Este 0 917.6 -- 57
2020-07-15 23:00:00 20.4 13 Este 21 Sudeste 0 917.1 -- 50
2020-07-15 22:00:00 22.8 15 Sudeste 28 Sudeste 0 916.5 -- 44
2020-07-15 21:00:00 26.6 16 Sudeste 26 Sudeste 0 916 -- 34
2020-07-15 20:00:00 27.5 10 Oeste 26 Sudoeste 0 915.6 -- 30
2020-07-15 19:00:00 27.3 13 Sudoeste 28 Sudoeste 0 915.4 -- 30
2020-07-15 18:00:00 27.5 13 Sur 28 Sudoeste 0 915.5 -- 28
2020-07-15 17:00:00 27.4 14 Sur 26 Sudoeste 0 915.6 -- 30
2020-07-15 16:00:00 27.1 12 Este 26 Nordeste 0 915.8 -- 30
2020-07-15 15:00:00 25.6 5 Norte 26 Sur 0 916.2 -- 32
2020-07-15 14:00:00 24.7 8 Nordeste 28 Este 0 916.5 -- 32
2020-07-15 13:00:00 23.6 14 Este 26 Este 0 916.7 -- 34
2020-07-15 12:00:00 22 9 Norte 22 Nordeste 0 916.8 -- 38
2020-07-15 11:00:00 19.8 12 Nordeste 18 Nordeste 0 916.9 -- 42
2020-07-15 10:00:00 18.1 11 Norte 17 Norte 0 916.9 -- 48
2020-07-15 09:00:00 16.2 6 Norte 11 Norte 0 916.9 -- 55
2020-07-15 08:00:00 12.5 5 Noroeste 18 Norte 0 916.7 -- 71
2020-07-15 07:00:00 9.1 8 Noroeste 15 Norte 0 916.8 -- 77
2020-07-15 06:00:00 10.3 2 Oeste 8 Oeste 0 916.4 -- 73
2020-07-15 05:00:00 10.3 5 Noroeste 8 Noroeste 0 916 -- 72
2020-07-15 04:00:00 11.6 0 Calma 5 Noroeste 0 916 -- 67
2020-07-15 03:00:00 12.3 2 Noroeste 5 Oeste 0 916.3 -- 63
2020-07-15 02:00:00 12.5 5 Noroeste 13 Nordeste 0 916.3 -- 60
2020-07-15 01:00:00 14.3 9 Nordeste 26 Norte 0 916 -- 54
2020-07-15 00:00:00 15.4 16 Norte 30 Norte 0 915.8 -- 49
2020-07-14 23:00:00 16.1 16 Norte 32 Norte 0 915.3 -- 49
2020-07-14 22:00:00 18 15 Nordeste 30 Nordeste 0 914.6 -- 49
2020-07-14 21:00:00 20 18 Norte -- -- -- 913.8 -- 46
2020-07-14 20:00:00 22.2 18 Norte 41 Norte 0 913.3 -- 41
2020-07-14 19:00:00 23.5 21 Norte 41 Norte 0 913.1 -- 35
2020-07-14 18:00:00 26.1 20 Norte 33 Norte 0 913.1 -- 30
2020-07-14 17:00:00 27.3 14 Sudeste 22 Sudoeste 0 913.4 -- 25
2020-07-14 16:00:00 26.1 6 Este 17 Este 0 913.7 -- 25
2020-07-14 15:00:00 25 13 Este 24 Este 0 914.4 -- 26
2020-07-14 14:00:00 24.2 8 Nordeste 28 Este 0 914.9 -- 27
2020-07-14 13:00:00 22.7 5 Norte 17 Este 0 915.3 -- 31
2020-07-14 12:00:00 21.1 6 Sur 18 Sur 0 915.9 -- 36
2020-07-14 11:00:00 18.8 6 Sur 15 Sur 0 916.5 -- 46
2020-07-14 10:00:00 16.7 7 Sur 15 Sudoeste 0 916.8 -- 57
2020-07-14 09:00:00 15.4 5 Sudeste 8 Sudeste 0 916.8 -- 55
2020-07-14 08:00:00 12.7 -- -- -- -- 0 916.7 -- 54
2020-07-14 07:00:00 12 2 Oeste 8 Oeste 0 916.7 -- 59
2020-07-14 06:00:00 12.4 6 Oeste 9 Oeste 0 916.9 -- 59
2020-07-14 05:00:00 13.1 6 Oeste 9 Oeste 0 917.3 -- 54
2020-07-14 04:00:00 13.9 6 Oeste 11 Noroeste 0 917.4 -- 51
2020-07-14 03:00:00 14.1 5 Noroeste 11 Norte 0 917.8 -- 53
2020-07-14 02:00:00 14.7 8 Norte 15 Noroeste 0 918.1 -- 49
2020-07-14 01:00:00 17.2 8 Nordeste 17 Nordeste 0 918.3 -- 48
2020-07-14 00:00:00 18.5 12 Nordeste 18 Nordeste 0 918.3 -- 42
2020-07-13 23:00:00 19.7 14 Norte 24 Norte 0 918.3 -- 37
2020-07-13 22:00:00 21.2 13 Norte 28 Norte 0 917.8 1.3 39
2020-07-13 21:00:00 23.7 19 Norte 32 Norte 0 917.2 0.6 31
2020-07-13 20:00:00 25.8 16 Norte 30 Norte 0 916.8 -0.5 28
2020-07-13 19:00:00 28.2 17 Norte 30 Norte 0 916.5 -1.2 30
2020-07-13 18:00:00 28.1 9 Sudoeste 17 Noroeste 0 916.6 -1.8 33
2020-07-13 17:00:00 28.1 10 Nordeste 26 Este 0 917.3 -1.5 33
2020-07-13 16:00:00 27.2 5 Este 28 Este -- 917.7 -1.2 34
2020-07-13 15:00:00 26.2 6 Norte 22 Sudeste 0 918.4 -0.9 38
2020-07-13 14:00:00 25 7 Este 17 Nordeste 0 918.8 -0.6 41
2020-07-13 13:00:00 23.8 10 Nordeste 17 Nordeste 0 918.9 -0.6 46
2020-07-13 12:00:00 22.3 9 Este 17 Este 0 919.3 -0.2 51
2020-07-13 11:00:00 20.8 6 Sudeste 18 Norte 0 919.4 0.1 58
2020-07-13 10:00:00 18.9 12 Norte 17 Norte 0 919.5 0.6 66
2020-07-13 09:00:00 16.6 8 Norte 11 Norte 0 919.5 1.2 81
2020-07-13 08:00:00 14.2 8 Norte 9 Norte 0 919.3 1.6 87
2020-07-13 07:00:00 14.2 0 Calma 8 Este 0 918.9 -- 88
2020-07-13 06:00:00 14 8 Este 11 Este 0 918.3 0.5 83
2020-07-13 05:00:00 14.7 0 Calma 9 Oeste 0 917.7 0.1 80
2020-07-13 04:00:00 14.9 7 Oeste 11 Norte 0 917.7 0.3 80
2020-07-13 03:00:00 15.6 8 Norte 11 Norte 0 917.8 0 78
2020-07-13 02:00:00 16.2 6 Norte 17 Norte 0 917.6 -0.2 76
2020-07-13 01:00:00 16.9 9 Norte 21 Norte 0 917.4 1.1 75
2020-07-13 00:00:00 17.5 12 Norte 22 Norte 0 917.8 2.1 73